Time;durP1;ratioP1;P1;durP2;ratioP2;P2;SDS_P1;SDS_P2;PMS_P1;PMS_P2;Temp;Humidity;BMP_temperature;BMP_pressure;BME280_temperature;BME280_humidity;BME280_pressure;Samples;Min_cycle;Max_cycle;Signal;HPM_P1;HPM_P2
2022/07/11 00:02:07;;;;;;;16.02;9.68;;;;;;;19.30;100.00;99044.84;5053640;28;20039;-41
2022/07/11 00:04:33;;;;;;;17.58;9.63;;;;;;;19.26;100.00;99038.97;5070164;28;20085;-42
2022/07/11 00:07:00;;;;;;;13.38;9.90;;;;;;;19.27;100.00;99040.66;5087794;28;20036;-41
2022/07/11 00:09:26;;;;;;;15.43;9.45;;;;;;;19.27;100.00;99042.44;5080823;28;20041;-40
2022/07/11 00:11:52;;;;;;;11.65;9.07;;;;;;;19.28;100.00;99059.94;5086152;28;20082;-41
2022/07/11 00:14:19;;;;;;;10.68;9.30;;;;;;;19.28;100.00;99062.59;5086520;28;20060;-41
2022/07/11 00:16:45;;;;;;;12.18;9.02;;;;;;;19.30;100.00;99060.66;5075580;28;20040;-40
2022/07/11 00:19:11;;;;;;;11.27;8.55;;;;;;;19.32;100.00;99062.22;5087874;28;20499;-42
2022/07/11 00:21:37;;;;;;;11.27;8.13;;;;;;;19.30;100.00;99048.34;5070421;28;20059;-42
2022/07/11 00:24:04;;;;;;;10.25;7.13;;;;;;;19.43;100.00;99061.34;5089060;28;20039;-40
2022/07/11 00:26:30;;;;;;;8.18;6.38;;;;;;;19.41;100.00;99048.31;5087699;28;20036;-42
2022/07/11 00:28:59;;;;;;;6.90;6.18;;;;;;;19.57;100.00;99069.03;5065875;28;20470;-41
2022/07/11 00:31:25;;;;;;;13.57;7.05;;;;;;;19.56;100.00;99066.50;5087308;28;20127;-40
2022/07/11 00:33:51;;;;;;;10.40;6.18;;;;;;;19.67;100.00;99079.66;5086589;28;20046;-39
2022/07/11 00:36:17;;;;;;;10.27;6.43;;;;;;;19.71;100.00;99086.38;5089795;28;20450;-42
2022/07/11 00:38:43;;;;;;;9.63;6.28;;;;;;;19.74;100.00;99073.75;5089350;28;20042;-41
2022/07/11 00:41:10;;;;;;;8.43;6.20;;;;;;;19.80;100.00;99078.53;5071304;28;20487;-41
2022/07/11 00:43:38;;;;;;;7.28;5.63;;;;;;;19.83;100.00;99082.75;5086540;28;20679;-41
2022/07/11 00:46:05;;;;;;;6.50;5.57;;;;;;;19.87;100.00;99085.00;5073565;28;20040;-42
2022/07/11 00:48:31;;;;;;;12.93;6.53;;;;;;;19.92;100.00;99074.06;5087705;28;20043;-42
2022/07/11 00:50:58;;;;;;;8.98;6.20;;;;;;;19.96;100.00;99070.19;5091201;28;20126;-41
2022/07/11 00:53:25;;;;;;;10.82;6.63;;;;;;;19.99;100.00;99072.59;5090330;28;20075;-41
2022/07/11 00:55:55;;;;;;;8.00;5.80;;;;;;;20.03;99.99;99067.91;5057466;28;20040;-41
2022/07/11 00:58:21;;;;;;;7.63;6.15;;;;;;;20.06;98.86;99059.72;5061854;28;20043;-39
2022/07/11 01:00:48;;;;;;;10.65;6.35;;;;;;;20.04;99.56;99067.78;5087675;28;20066;-40
2022/07/11 01:03:14;;;;;;;9.13;6.25;;;;;;;20.05;100.00;99068.59;5087307;28;20067;-40
2022/07/11 01:05:40;;;;;;;9.18;6.22;;;;;;;20.03;100.00;99065.25;5061373;28;20040;-40
2022/07/11 01:08:06;;;;;;;13.73;6.30;;;;;;;19.98;100.00;99059.53;5087855;28;20042;-40
2022/07/11 01:10:32;;;;;;;9.63;6.28;;;;;;;19.96;100.00;99056.16;5071194;28;20934;-40
2022/07/11 01:12:58;;;;;;;7.50;6.30;;;;;;;19.94;100.00;99066.03;5088389;28;20044;-40
2022/07/11 01:15:24;;;;;;;8.30;5.90;;;;;;;19.93;100.00;99057.28;5065725;28;20479;-41
2022/07/11 01:17:54;;;;;;;9.35;6.40;;;;;;;19.82;100.00;99044.13;5090261;28;20063;-40
2022/07/11 01:20:22;;;;;;;6.93;6.22;;;;;;;19.93;100.00;99056.44;5071840;28;20077;-41
2022/07/11 01:22:52;;;;;;;9.27;6.07;;;;;;;19.95;100.00;99054.47;5090218;28;20052;-41
2022/07/11 01:25:31;;;;;;;7.65;5.95;;;;;;;19.94;100.00;99051.00;5075388;28;20056;-41
2022/07/11 01:28:01;;;;;;;9.23;6.65;;;;;;;19.93;100.00;99052.00;5086001;28;20123;-41
2022/07/11 01:30:28;;;;;;;7.60;6.60;;;;;;;19.91;100.00;99048.63;5088067;28;20419;-40
2022/07/11 01:32:54;;;;;;;11.25;6.90;;;;;;;19.89;100.00;99046.13;5090245;28;20036;-40
2022/07/11 01:35:21;;;;;;;13.60;6.80;;;;;;;19.87;100.00;99032.22;5087211;28;20050;-40
2022/07/11 01:37:46;;;;;;;9.40;6.50;;;;;;;19.87;100.00;99045.41;5054781;28;20044;-39
2022/07/11 01:40:13;;;;;;;10.73;6.32;;;;;;;19.86;100.00;99059.56;5073099;28;20052;-41
2022/07/11 01:42:38;;;;;;;10.13;7.32;;;;;;;19.88;100.00;99056.81;5091308;28;20461;-41
2022/07/11 01:45:04;;;;;;;10.57;8.18;;;;;;;19.91;100.00;99053.91;5072813;28;20040;-41
2022/07/11 01:47:30;;;;;;;14.38;7.53;;;;;;;19.93;100.00;99059.06;5073077;28;20559;-41
2022/07/11 01:49:56;;;;;;;8.77;7.32;;;;;;;19.97;100.00;99045.50;5087188;28;20040;-41
2022/07/11 01:52:22;;;;;;;12.52;7.13;;;;;;;20.01;100.00;99036.34;5072804;28;20420;-41
2022/07/11 01:54:49;;;;;;;10.88;7.07;;;;;;;20.03;100.00;99026.50;5089386;28;20071;-42
2022/07/11 01:57:15;;;;;;;8.05;7.25;;;;;;;20.04;100.00;99030.00;5072491;28;20135;-40
2022/07/11 01:59:41;;;;;;;10.02;6.82;;;;;;;20.04;100.00;99022.06;5087439;28;20047;-41
2022/07/11 02:02:07;;;;;;;10.68;7.00;;;;;;;19.87;100.00;98990.00;5070724;28;20609;-40
2022/07/11 02:04:33;;;;;;;9.60;6.95;;;;;;;20.07;100.00;99027.94;5073387;28;20055;-41
2022/07/11 02:06:59;;;;;;;13.93;7.43;;;;;;;20.11;100.00;99018.78;5090270;28;20032;-41
2022/07/11 02:09:25;;;;;;;10.38;6.90;;;;;;;20.18;100.00;99016.47;5071704;28;20047;-42
2022/07/11 02:11:51;;;;;;;10.02;6.63;;;;;;;20.27;100.00;99016.53;5090480;28;20040;-41
2022/07/11 02:14:17;;;;;;;8.15;6.38;;;;;;;20.34;100.00;99016.88;5089524;28;20112;-41
2022/07/11 02:16:42;;;;;;;9.75;7.13;;;;;;;20.43;100.00;99008.16;5072054;28;20400;-42
2022/07/11 02:19:10;;;;;;;8.57;6.53;;;;;;;20.37;100.00;98984.06;5089744;28;20040;-42
2022/07/11 02:21:36;;;;;;;7.05;6.18;;;;;;;20.58;100.00;99003.38;5078283;28;20117;-41
2022/07/11 02:24:03;;;;;;;8.35;6.68;;;;;;;20.64;100.00;99008.13;5063500;28;20233;-42
2022/07/11 02:26:29;;;;;;;9.98;6.43;;;;;;;20.68;99.33;99018.28;5091252;28;20081;-41
2022/07/11 02:28:56;;;;;;;7.22;6.45;;;;;;;20.70;98.77;99004.94;5089087;28;20040;-40
2022/07/11 02:31:24;;;;;;;;;;;;;;;20.73;98.60;99002.03;5089430;28;20511;-41
2022/07/11 02:33:50;;;;;;;7.90;5.90;;;;;;;20.76;98.62;99003.59;5082814;28;20323;-41
2022/07/11 02:36:16;;;;;;;7.20;6.47;;;;;;;20.77;98.10;98999.97;5089215;28;20088;-41
2022/07/11 02:38:42;;;;;;;11.93;6.72;;;;;;;20.67;98.09;98987.56;5085666;28;20093;-40
2022/07/11 02:41:08;;;;;;;9.23;6.25;;;;;;;20.76;97.57;99000.94;5086267;28;20039;-41
2022/07/11 02:43:34;;;;;;;8.55;6.45;;;;;;;20.76;96.09;99008.88;5087921;28;20534;-40
2022/07/11 02:46:00;;;;;;;11.98;6.70;;;;;;;20.73;95.66;99010.81;5088402;28;20143;-40
2022/07/11 02:48:27;;;;;;;8.73;6.65;;;;;;;20.74;95.25;99019.56;5088432;28;20081;-42
2022/07/11 02:50:53;;;;;;;11.15;6.82;;;;;;;20.73;95.14;99024.00;5070483;28;20047;-42
2022/07/11 02:53:18;;;;;;;8.40;6.68;;;;;;;20.71;95.35;99025.97;5088403;28;20085;-42
2022/07/11 02:55:45;;;;;;;9.75;6.57;;;;;;;20.71;94.84;99023.31;5089875;28;20462;-41
2022/07/11 02:58:11;;;;;;;8.63;6.20;;;;;;;20.73;93.93;99025.00;5088206;28;20093;-40
2022/07/11 03:00:37;;;;;;;10.10;6.35;;;;;;;20.73;93.03;99017.06;5087463;28;20067;-41
2022/07/11 03:03:03;;;;;;;8.15;6.60;;;;;;;20.73;92.82;99013.44;5088049;28;20067;-41
2022/07/11 03:05:28;;;;;;;7.97;6.50;;;;;;;20.73;93.21;99015.25;5086883;28;20039;-42
2022/07/11 03:07:55;;;;;;;8.23;6.32;;;;;;;20.72;93.44;99016.25;5086830;28;20404;-42
2022/07/11 03:10:23;;;;;;;9.20;6.35;;;;;;;20.75;92.93;99015.13;5052942;28;20051;-41
2022/07/11 03:12:49;;;;;;;8.35;6.10;;;;;;;20.79;92.46;99008.59;5087952;28;20477;-41
2022/07/11 03:15:15;;;;;;;8.02;6.10;;;;;;;20.80;91.93;99005.81;5088124;28;20043;-41
2022/07/11 03:17:41;;;;;;;8.45;6.30;;;;;;;20.81;91.17;99009.31;5085239;28;20397;-41
2022/07/11 03:20:07;;;;;;;10.98;6.82;;;;;;;20.75;90.77;98989.53;5078058;28;20048;-41
2022/07/11 03:22:33;;;;;;;10.68;6.80;;;;;;;20.87;90.02;99006.13;5064928;28;20392;-42
2022/07/11 03:25:00;;;;;;;10.15;6.90;;;;;;;20.82;89.43;98995.13;5082859;28;20040;-41
2022/07/11 03:27:26;;;;;;;9.65;7.20;;;;;;;20.96;89.18;99011.44;5088758;28;20040;-42
2022/07/11 03:29:52;;;;;;;9.70;6.95;;;;;;;21.01;88.47;99011.88;5089095;28;20553;-42
2022/07/11 03:32:22;;;;;;;8.65;6.60;;;;;;;21.06;88.68;99014.94;5090230;28;20031;-40
2022/07/11 03:35:40;;;;;;;8.57;6.78;;;;;;;21.10;88.70;99016.34;5085795;28;20519;-41
2022/07/11 03:37:33;;;;;;;12.18;6.82;;;;;;;21.21;88.20;99020.72;5070419;28;20040;-41
2022/07/11 03:39:59;;;;;;;8.77;6.72;;;;;;;21.33;87.62;99022.28;5032062;28;20081;-42
2022/07/11 03:42:26;;;;;;;9.18;6.80;;;;;;;21.38;86.48;99009.47;5069992;28;20046;-41
2022/07/11 03:44:52;;;;;;;9.45;6.63;;;;;;;21.56;86.16;99020.25;5086831;28;20039;-41
2022/07/11 03:47:19;;;;;;;10.80;7.30;;;;;;;21.68;85.34;99024.41;5088371;28;20032;-42
2022/07/11 03:49:46;;;;;;;9.23;6.97;;;;;;;21.75;84.49;99025.53;5085929;28;20119;-41
2022/07/11 03:52:12;;;;;;;11.73;8.65;;;;;;;21.75;84.15;99024.69;5088722;28;20039;-42
2022/07/11 03:54:38;;;;;;;7.82;7.00;;;;;;;21.74;84.20;99026.50;5086403;28;20048;-41
2022/07/11 03:57:04;;;;;;;9.32;7.40;;;;;;;21.77;83.77;99025.41;5088849;28;20096;-41
2022/07/11 03:59:30;;;;;;;11.60;7.40;;;;;;;21.86;83.26;99019.25;5068063;28;20032;-42
2022/07/11 04:01:55;;;;;;;9.82;7.93;;;;;;;21.99;82.72;99019.81;5086265;28;20580;-41
2022/07/11 04:04:21;;;;;;;10.35;7.15;;;;;;;22.13;82.14;99007.97;5066845;28;20048;-40
2022/07/11 04:06:47;;;;;;;11.48;7.95;;;;;;;22.26;81.40;99003.19;5084432;28;20041;-41
2022/07/11 04:09:13;;;;;;;10.23;8.43;;;;;;;22.33;80.56;99013.09;5086684;28;20036;-41
2022/07/11 04:11:39;;;;;;;9.45;7.10;;;;;;;22.43;80.13;99007.75;5073730;28;20530;-41
2022/07/11 04:14:04;;;;;;;9.07;7.10;;;;;;;22.53;79.74;99011.22;5091747;28;20126;-42
2022/07/11 04:16:30;;;;;;;12.20;7.78;;;;;;;22.51;79.10;98984.03;5095050;28;20134;-41
2022/07/11 04:18:56;;;;;;;10.65;8.68;;;;;;;22.74;78.54;99014.50;5079833;28;21106;-41
2022/07/11 04:21:22;;;;;;;9.20;6.97;;;;;;;22.74;77.82;98997.78;5090314;28;20036;-41
2022/07/11 04:23:48;;;;;;;8.85;6.80;;;;;;;22.90;77.69;99016.53;5073226;28;20059;-42
2022/07/11 04:26:14;;;;;;;9.00;7.05;;;;;;;22.94;77.99;99015.25;5084476;28;20044;-41
2022/07/11 04:28:40;;;;;;;10.45;7.35;;;;;;;22.94;77.87;99007.31;5091148;28;20035;-42
2022/07/11 04:31:06;;;;;;;10.07;7.30;;;;;;;22.97;77.48;99007.03;5048244;28;20040;-42
2022/07/11 04:33:32;;;;;;;9.68;7.57;;;;;;;23.00;77.40;99008.53;5092231;28;20193;-42
2022/07/11 04:35:57;;;;;;;10.35;6.70;;;;;;;22.93;77.34;99008.28;5089167;28;20507;-45
2022/07/11 04:38:23;;;;;;;9.68;6.93;;;;;;;23.11;76.74;99014.47;5091337;28;20040;-40
2022/07/11 04:40:50;;;;;;;8.48;7.45;;;;;;;23.28;76.12;99015.50;5074055;28;20097;-42
2022/07/11 04:43:16;;;;;;;9.75;7.05;;;;;;;23.44;75.23;99009.53;5092332;28;20040;-42
2022/07/11 04:45:42;;;;;;;9.48;6.35;;;;;;;23.61;74.66;99009.56;5073517;28;20040;-41
2022/07/11 04:48:08;;;;;;;14.73;6.88;;;;;;;23.72;74.01;99003.19;5091911;28;20051;-42
2022/07/11 04:50:34;;;;;;;7.93;6.43;;;;;;;23.76;73.74;99003.72;5092611;28;20046;-41
2022/07/11 04:52:59;;;;;;;8.75;6.10;;;;;;;23.75;73.68;98996.75;5084292;28;20059;-40
2022/07/11 04:55:25;;;;;;;12.25;6.05;;;;;;;23.68;72.97;98998.34;5087442;28;20040;-41
2022/07/11 04:57:51;;;;;;;7.03;6.30;;;;;;;23.50;72.92;98977.94;5084577;28;20046;-41
2022/07/11 05:00:18;;;;;;;7.72;5.65;;;;;;;23.50;73.37;98990.38;5072850;28;20044;-42
2022/07/11 05:02:43;;;;;;;8.60;6.35;;;;;;;23.42;73.48;98982.31;5090653;28;20138;-41
2022/07/11 05:05:10;;;;;;;9.27;6.45;;;;;;;23.37;73.76;98988.06;5070684;28;20523;-41
2022/07/11 05:07:35;;;;;;;13.50;6.55;;;;;;;23.32;72.68;98984.19;5058500;28;20032;-42
2022/07/11 05:10:02;;;;;;;8.85;6.00;;;;;;;23.34;72.79;98982.25;5089307;28;20044;-40
2022/07/11 05:12:28;;;;;;;9.40;6.13;;;;;;;23.34;72.68;98988.38;5075179;28;20418;-40
2022/07/11 05:14:55;;;;;;;8.15;6.75;;;;;;;23.38;71.02;98975.63;5090062;28;20122;-42
2022/07/11 05:17:21;;;;;;;7.22;6.03;;;;;;;23.46;71.58;98978.38;5089800;28;20059;-43
2022/07/11 05:19:47;;;;;;;6.97;5.70;;;;;;;23.53;71.04;98977.66;5071458;28;20507;-42
2022/07/11 05:22:12;;;;;;;6.80;5.70;;;;;;;23.60;70.92;98969.91;5076048;28;20056;-42
2022/07/11 05:24:38;;;;;;;7.85;5.70;;;;;;;23.73;69.91;98969.50;5086701;28;20039;-42
2022/07/11 05:27:04;;;;;;;10.52;6.60;;;;;;;23.83;69.38;98971.09;5073377;28;20032;-41
2022/07/11 05:29:30;;;;;;;6.85;5.82;;;;;;;23.95;69.34;98971.69;5054191;28;20419;-42
2022/07/11 05:31:56;;;;;;;8.60;6.40;;;;;;;24.01;69.24;98971.06;5089287;28;20139;-43
2022/07/11 05:34:21;;;;;;;6.88;5.90;;;;;;;24.03;68.67;98969.06;5055405;28;20032;-40
2022/07/11 05:36:47;;;;;;;6.90;6.10;;;;;;;23.96;68.42;98957.44;5092136;28;20070;-43
2022/07/11 05:39:13;;;;;;;8.02;6.10;;;;;;;24.05;68.69;98965.28;5073241;28;20042;-41
2022/07/11 05:41:39;;;;;;;8.32;6.20;;;;;;;24.06;68.45;98966.13;5086614;28;20028;-42
2022/07/11 05:44:05;;;;;;;7.13;6.05;;;;;;;24.10;68.49;98958.66;5089904;28;20043;-42
2022/07/11 05:46:31;;;;;;;8.25;6.63;;;;;;;24.12;68.81;98964.69;5090028;28;20051;-41
2022/07/11 05:48:56;;;;;;;11.65;6.32;;;;;;;24.13;68.44;98964.50;5071662;28;20036;-41
2022/07/11 05:51:22;;;;;;;10.40;7.38;;;;;;;24.21;68.06;98961.09;5054938;28;20047;-41
2022/07/11 05:53:48;;;;;;;11.35;6.15;;;;;;;24.29;68.09;98958.47;5087849;28;20039;-42
2022/07/11 05:56:14;;;;;;;7.32;5.75;;;;;;;24.37;67.54;98959.38;5089088;28;20082;-46
2022/07/11 05:58:40;;;;;;;8.20;5.97;;;;;;;24.46;66.79;98958.44;5093679;28;20426;-44
2022/07/11 06:01:06;;;;;;;15.80;8.50;;;;;;;24.56;66.21;98963.63;5080588;28;20058;-42
2022/07/11 06:03:31;;;;;;;8.55;6.05;;;;;;;24.66;66.48;98953.69;5082919;28;20040;-42
2022/07/11 06:05:57;;;;;;;8.27;6.85;;;;;;;24.77;65.90;98953.41;5067466;28;20046;-41
2022/07/11 06:08:41;;;;;;;6.35;5.75;;;;;;;24.85;65.79;98945.47;5079622;28;20412;-43
2022/07/11 06:11:11;;;;;;;11.10;7.15;;;;;;;24.98;65.16;98953.00;5082319;28;20055;-42
2022/07/11 06:13:44;;;;;;;7.97;5.90;;;;;;;25.08;64.87;98952.88;5089528;28;20047;-43
2022/07/11 06:16:11;;;;;;;8.13;6.78;;;;;;;25.19;65.23;98950.75;5090272;28;20044;-44
2022/07/11 06:18:37;;;;;;;9.23;6.55;;;;;;;25.30;64.80;98953.09;5091281;28;20101;-43
2022/07/11 06:21:04;;;;;;;17.10;7.07;;;;;;;25.42;64.04;98948.31;5094429;28;20084;-42
2022/07/11 06:23:31;;;;;;;13.40;8.85;;;;;;;25.53;63.53;98947.13;5107277;28;20096;-42
2022/07/11 06:25:59;;;;;;;9.63;7.47;;;;;;;25.60;63.69;98940.16;5090908;28;20036;-40
2022/07/11 06:28:25;;;;;;;9.48;7.63;;;;;;;25.83;63.46;98951.84;5095538;28;20143;-42
2022/07/11 06:30:51;;;;;;;12.45;6.68;;;;;;;25.99;62.56;98949.16;5070645;28;20040;-44
2022/07/11 06:33:20;;;;;;;9.00;6.40;;;;;;;26.11;61.30;98934.50;5072172;28;20093;-42
2022/07/11 06:35:47;;;;;;;8.90;6.38;;;;;;;26.38;60.67;98943.94;5087196;28;20044;-42
2022/07/11 06:38:16;;;;;;;7.97;6.68;;;;;;;26.58;59.65;98943.56;5089502;28;20511;-44
2022/07/11 06:40:43;;;;;;;8.88;5.82;;;;;;;26.85;59.18;98940.44;5068971;28;20036;-43
2022/07/11 06:43:10;;;;;;;8.85;6.25;;;;;;;27.27;57.92;98921.34;5089125;28;20062;-44
2022/07/11 06:45:36;;;;;;;9.75;5.78;;;;;;;28.06;55.76;98939.59;5060552;28;20071;-42
2022/07/11 06:48:02;;;;;;;12.30;6.07;;;;;;;28.84;53.90;98941.75;5078333;28;20074;-43
2022/07/11 06:50:53;;;;;;;8.93;6.28;;;;;;;29.88;50.83;98938.56;5091823;28;21348;-43
2022/07/11 06:53:19;;;;;;;6.35;5.47;;;;;;;30.72;48.68;98939.31;5080876;28;20411;-44
2022/07/11 06:55:45;;;;;;;7.10;5.30;;;;;;;31.10;47.20;98936.19;5083946;28;20053;-45
2022/07/11 06:58:12;;;;;;;7.45;5.78;;;;;;;31.80;45.09;98921.44;5067731;28;20040;-44
2022/07/11 07:00:37;;;;;;;7.60;5.68;;;;;;;32.83;42.45;98935.97;5080020;28;20130;-44
2022/07/11 07:03:04;;;;;;;6.97;5.70;;;;;;;33.98;40.52;98931.13;5083107;28;20158;-42
2022/07/11 07:05:30;;;;;;;8.10;5.75;;;;;;;35.09;38.54;98933.66;5081952;28;20533;-46
2022/07/11 07:07:57;;;;;;;8.57;5.85;;;;;;;36.02;36.55;98923.09;5080576;28;21148;-42
2022/07/11 07:10:22;;;;;;;8.27;5.32;;;;;;;36.79;35.20;98915.66;5089560;28;20032;-48
2022/07/11 07:12:48;;;;;;;8.23;5.45;;;;;;;36.91;34.39;98921.00;5077410;28;20548;-48
2022/07/11 07:15:14;;;;;;;6.55;5.30;;;;;;;37.27;33.41;98928.78;5090638;28;20808;-46
2022/07/11 07:17:40;;;;;;;6.32;5.10;;;;;;;37.80;32.49;98924.84;5093159;28;20554;-50
2022/07/11 07:20:08;;;;;;;5.95;4.90;;;;;;;38.35;31.58;98922.19;5065630;28;20471;-50
2022/07/11 07:22:36;;;;;;;5.68;4.93;;;;;;;38.47;31.29;98919.38;5094292;28;20083;-46
2022/07/11 07:25:02;;;;;;;6.32;5.10;;;;;;;38.25;31.29;98916.59;5091275;28;20508;-44
2022/07/11 07:27:29;;;;;;;6.95;5.85;;;;;;;38.70;30.70;98912.84;5077081;28;20040;-43
2022/07/11 07:29:55;;;;;;;7.00;4.97;;;;;;;38.81;30.49;98917.34;5088271;28;20036;-46
2022/07/11 07:32:21;;;;;;;5.60;5.10;;;;;;;38.36;30.47;98915.69;5072652;28;20044;-46
2022/07/11 07:34:48;;;;;;;7.68;5.20;;;;;;;38.26;30.76;98912.00;5070907;28;20550;-46
2022/07/11 07:37:14;;;;;;;6.28;5.38;;;;;;;38.67;30.00;98919.63;5091589;28;20071;-47
2022/07/11 07:39:40;;;;;;;6.55;5.45;;;;;;;38.72;31.21;98906.09;5090549;28;20042;-48
2022/07/11 07:42:07;;;;;;;5.72;5.20;;;;;;;38.88;30.27;98910.66;5090902;28;20502;-47
2022/07/11 07:44:33;;;;;;;8.40;4.95;;;;;;;38.77;30.32;98908.88;5095474;28;20572;-48
2022/07/11 07:46:59;;;;;;;7.15;5.45;;;;;;;38.21;30.95;98910.00;5090105;28;20040;-47
2022/07/11 07:49:25;;;;;;;11.43;6.88;;;;;;;39.20;29.99;98896.31;5094225;28;20048;-45
2022/07/11 07:51:51;;;;;;;6.90;4.90;;;;;;;39.52;28.60;98908.06;5075976;28;20138;-46
2022/07/11 07:54:18;;;;;;;9.23;6.07;;;;;;;39.60;28.74;98895.88;5092386;28;20067;-45
2022/07/11 07:56:44;;;;;;;7.20;5.50;;;;;;;40.32;27.85;98903.50;5094010;28;20140;-45
2022/07/11 07:59:10;;;;;;;13.38;5.50;;;;;;;41.10;26.79;98905.22;5096243;28;20482;-46
2022/07/11 08:01:36;;;;;;;9.70;5.93;;;;;;;41.99;26.32;98907.47;5073720;28;20032;-45
2022/07/11 08:04:02;;;;;;;12.18;9.88;;;;;;;42.73;25.13;98904.00;5087351;28;20066;-47
2022/07/11 08:06:28;;;;;;;6.88;6.10;;;;;;;43.15;24.44;98900.78;5083101;28;20274;-49
2022/07/11 08:08:54;;;;;;;6.82;5.60;;;;;;;43.55;24.05;98904.38;5088011;28;20085;-47
2022/07/11 08:11:19;;;;;;;6.78;5.70;;;;;;;44.01;23.22;98905.59;5063190;28;20048;-44
2022/07/11 08:13:45;;;;;;;7.90;6.18;;;;;;;43.22;24.05;98904.03;5087765;28;20043;-44
2022/07/11 08:16:12;;;;;;;8.45;6.80;;;;;;;44.09;23.05;98901.41;5088165;28;20531;-47
2022/07/11 08:18:37;;;;;;;17.73;7.47;;;;;;;45.09;22.09;98895.81;5087438;28;20127;-46
2022/07/11 08:21:04;;;;;;;11.57;6.00;;;;;;;44.46;22.31;98885.09;5088109;28;20520;-50
2022/07/11 08:23:29;;;;;;;8.95;5.90;;;;;;;44.57;22.45;98885.78;5087567;28;20063;-46
2022/07/11 08:25:55;;;;;;;8.70;6.28;;;;;;;45.33;21.62;98893.78;5089179;28;20051;-44
2022/07/11 08:28:21;;;;;;;9.40;6.30;;;;;;;46.05;20.95;98896.19;5086779;28;20060;-45
2022/07/11 08:30:47;;;;;;;6.55;5.95;;;;;;;46.32;20.17;98890.72;5069281;28;20074;-46
2022/07/11 08:33:13;;;;;;;10.93;8.98;;;;;;;46.64;19.93;98887.84;5086705;28;20080;-45
2022/07/11 08:35:39;;;;;;;6.97;6.28;;;;;;;45.75;20.56;98886.53;5087719;28;20093;-44
2022/07/11 08:38:04;;;;;;;6.43;5.65;;;;;;;44.28;21.63;98874.91;5085325;28;20458;-45
2022/07/11 08:40:30;;;;;;;9.52;7.43;;;;;;;44.75;21.39;98867.75;5088871;28;20044;-44
2022/07/11 08:42:59;;;;;;;7.35;5.53;;;;;;;45.71;19.95;98869.00;5092241;28;20122;-45
2022/07/11 08:45:31;;;;;;;6.28;5.63;;;;;;;46.29;18.86;98878.38;5086647;28;20043;-58
2022/07/11 08:47:58;;;;;;;6.15;4.30;;;;;;;46.01;18.95;98849.22;5085797;28;20115;-48
2022/07/11 08:50:26;;;;;;;6.60;6.00;;;;;;;45.06;19.77;98860.75;5087513;28;20047;-46
2022/07/11 08:52:54;;;;;;;12.45;11.25;;;;;;;44.51;20.30;98865.00;5068185;28;20301;-45
2022/07/11 08:55:20;;;;;;;5.32;4.82;;;;;;;43.86;20.96;98861.91;5088226;28;20859;-47
2022/07/11 08:57:46;;;;;;;6.38;5.78;;;;;;;43.11;21.10;98860.59;5075319;28;20093;-47
2022/07/11 09:00:13;;;;;;;8.27;5.70;;;;;;;42.69;22.19;98848.25;5074110;28;20462;-46
2022/07/11 09:02:41;;;;;;;10.40;9.40;;;;;;;42.39;22.69;98857.41;5089964;28;20123;-48
2022/07/11 09:05:07;;;;;;;11.32;6.20;;;;;;;43.92;20.83;98836.09;5072629;28;20596;-46
2022/07/11 09:07:34;;;;;;;10.30;6.60;;;;;;;45.22;20.10;98853.09;5089487;28;20039;-49
2022/07/11 09:10:00;;;;;;;8.98;7.55;;;;;;;45.80;19.04;98840.56;5088842;28;20047;-49
2022/07/11 09:12:26;;;;;;;6.53;5.03;;;;;;;45.68;18.03;98833.91;5090374;28;20039;-50
2022/07/11 09:14:53;;;;;;;10.25;6.35;;;;;;;46.37;17.99;98841.13;5091190;28;20440;-53
2022/07/11 09:17:30;;;;;;;6.50;5.18;;;;;;;46.99;17.28;98842.25;5088780;28;20051;-50
2022/07/11 09:19:56;;;;;;;8.90;6.32;;;;;;;47.71;16.73;98850.38;5090437;28;20036;-51
2022/07/11 09:25:20;;;;;;;7.88;5.20;;;;;;;47.15;17.28;98843.50;5088601;28;20039;-51
2022/07/11 09:28:01;;;;;;;9.73;5.00;;;;;;;45.12;18.62;98841.13;5089801;28;20046;-51
2022/07/11 09:30:30;;;;;;;8.02;5.30;;;;;;;44.06;19.04;98838.97;5090474;28;20046;-55
2022/07/11 09:33:02;;;;;;;6.38;4.70;;;;;;;43.09;19.64;98836.25;5090431;28;20067;-48
2022/07/11 09:35:34;;;;;;;8.95;4.13;;;;;;;42.78;20.11;98823.84;5072918;28;20047;-51
2022/07/11 09:38:08;;;;;;;7.65;5.18;;;;;;;43.45;19.72;98815.69;5073464;28;20040;-53
2022/07/11 09:40:35;;;;;;;6.63;5.55;;;;;;;44.93;18.58;98828.50;5091153;28;20051;-50
2022/07/11 09:43:02;;;;;;;11.85;6.78;;;;;;;46.07;17.80;98828.75;5090148;28;20172;-52
2022/07/11 09:45:29;;;;;;;7.70;6.57;;;;;;;45.65;17.63;98823.50;5095336;28;20043;-46
2022/07/11 09:47:57;;;;;;;5.40;4.90;;;;;;;45.66;17.85;98819.66;5099202;28;20056;-51
2022/07/11 09:50:25;;;;;;;7.55;6.18;;;;;;;45.90;17.87;98817.59;5072655;28;20039;-46
2022/07/11 09:53:11;;;;;;;7.13;6.53;;;;;;;45.52;17.39;98830.63;5042692;28;20405;-51
2022/07/11 09:55:45;;;;;;;5.63;5.10;;;;;;;44.39;17.59;98820.78;5089326;28;20177;-46
2022/07/11 09:58:13;;;;;;;6.28;5.55;;;;;;;44.46;18.05;98802.00;5071304;28;20044;-50
2022/07/11 10:00:41;;;;;;;10.15;9.05;;;;;;;44.78;18.13;98809.53;5089668;28;20126;-51
2022/07/11 10:03:08;;;;;;;11.63;7.90;;;;;;;44.42;19.24;98801.81;5072719;28;20126;-49
2022/07/11 10:05:34;;;;;;;21.35;8.55;;;;;;;45.01;19.28;98803.97;5089273;28;20044;-51
2022/07/11 10:08:01;;;;;;;10.57;7.90;;;;;;;45.84;18.35;98794.06;5056679;28;20512;-52
2022/07/11 10:10:28;;;;;;;7.75;7.03;;;;;;;46.47;17.28;98798.81;5069659;28;20503;-51
2022/07/11 10:12:55;;;;;;;8.25;7.07;;;;;;;47.07;17.11;98794.69;5086723;28;20451;-50
2022/07/11 10:15:26;;;;;;;;;;;;;;;47.54;17.05;98793.22;5089922;28;20492;-47
2022/07/11 10:18:28;;;;;;;6.32;5.72;;;;;;;46.92;16.48;98788.75;5072346;28;20027;-52
2022/07/11 10:21:10;;;;;;;6.78;5.15;;;;;;;47.06;16.09;98781.22;5051289;28;20043;-53
2022/07/11 10:23:45;;;;;;;8.50;5.80;;;;;;;47.56;16.32;98779.13;5086710;28;20073;-55
2022/07/11 10:26:37;;;;;;;8.40;5.93;;;;;;;47.53;16.05;98777.81;5065386;28;20055;-52
2022/07/11 10:29:10;;;;;;;7.88;6.60;;;;;;;47.60;15.46;98766.34;5053079;28;20048;-51
2022/07/11 10:31:35;;;;;;;15.98;5.82;;;;;;;47.57;14.27;98806.38;5071031;28;20044;-50
2022/07/11 10:34:21;;;;;;;12.38;10.55;;;;;;;46.91;15.28;98776.09;5089774;28;20043;-52
2022/07/11 10:36:47;;;;;;;10.85;9.80;;;;;;;47.27;14.53;98795.31;5071942;28;20040;-52
2022/07/11 10:39:13;;;;;;;9.53;7.30;;;;;;;47.54;14.64;98789.63;5088708;28;20530;-49
2022/07/11 10:41:39;;;;;;;35.15;29.80;;;;;;;47.69;14.59;98786.50;5088204;28;20294;-51
2022/07/11 10:44:04;;;;;;;7.77;7.13;;;;;;;47.60;14.56;98782.88;5088470;28;20050;-54
2022/07/11 10:46:30;;;;;;;16.67;14.63;;;;;;;47.78;14.57;98790.13;5070030;28;20439;-52
2022/07/11 10:49:01;;;;;;;13.30;8.38;;;;;;;47.47;14.62;98768.06;5088245;28;20040;-52
2022/07/11 10:51:42;;;;;;;5.80;5.13;;;;;;;46.97;14.68;98770.16;5086755;28;20040;-50
2022/07/11 10:54:32;;;;;;;14.43;13.13;;;;;;;47.24;15.26;98763.69;5088925;28;20097;-52
2022/07/11 10:57:22;;;;;;;21.77;18.30;;;;;;;47.48;15.22;98758.66;5086691;28;20075;-49
2022/07/11 11:00:10;;;;;;;11.57;9.13;;;;;;;47.80;15.27;98770.50;5069170;28;20523;-52
2022/07/11 11:03:07;;;;;;;8.23;7.47;;;;;;;47.90;15.28;98759.16;5084635;28;20047;-53
2022/07/11 11:05:44;;;;;;;7.68;7.05;;;;;;;47.94;15.13;98749.97;5084146;28;20036;-54
2022/07/11 11:08:32;;;;;;;6.13;5.63;;;;;;;48.14;14.86;98756.84;5070517;28;20062;-55
2022/07/11 11:10:59;;;;;;;9.05;8.20;;;;;;;48.02;14.84;98764.09;5084475;28;20071;-52
2022/07/11 11:13:26;;;;;;;9.43;6.07;;;;;;;47.88;14.94;98766.97;5069982;28;20050;-53
2022/07/11 11:15:59;;;;;;;5.57;5.18;;;;;;;47.34;15.38;98755.19;5069157;28;20126;-55
2022/07/11 11:18:25;;;;;;;6.30;5.80;;;;;;;47.62;15.35;98763.28;5086427;28;20048;-52
2022/07/11 11:21:03;;;;;;;6.00;5.33;;;;;;;47.63;15.48;98760.25;5064000;28;20036;-52
2022/07/11 11:23:39;;;;;;;7.53;5.55;;;;;;;47.92;15.03;98762.44;5087482;28;20060;-51
2022/07/11 11:26:09;;;;;;;6.63;6.13;;;;;;;47.87;15.12;98746.03;5084724;28;20043;-53
2022/07/11 11:28:35;;;;;;;6.85;5.68;;;;;;;47.91;15.09;98771.81;5086749;28;20032;-52
2022/07/11 11:31:06;;;;;;;6.90;5.20;;;;;;;46.91;15.66;98752.13;5088469;28;20130;-49
2022/07/11 11:33:38;;;;;;;5.90;5.38;;;;;;;46.42;15.77;98786.00;5086019;28;20051;-51
2022/07/11 11:36:06;;;;;;;5.78;4.97;;;;;;;46.23;15.96;98747.63;5091386;28;20563;-55